Time;durP1;ratioP1;P1;durP2;ratioP2;P2;SDS_P1;SDS_P2;PMS_P1;PMS_P2;Temp;Humidity;BMP_temperature;BMP_pressure;BME280_temperature;BME280_humidity;BME280_pressure;Samples;Min_cycle;Max_cycle;Signal;HPM_P1;HPM_P2
2023/09/25 00:00:45;;;;;;;4.35;2.38;;;14.60;99.90;;;;;;5088665;28;20466;-76
2023/09/25 00:03:11;;;;;;;2.95;2.65;;;14.60;99.90;;;;;;5077003;28;20028;-81
2023/09/25 00:05:37;;;;;;;3.70;2.60;;;14.60;99.90;;;;;;5076185;28;20020;-80
2023/09/25 00:08:03;;;;;;;3.00;2.70;;;14.60;99.90;;;;;;5074191;28;20390;-81
2023/09/25 00:10:31;;;;;;;3.50;2.60;;;14.60;99.90;;;;;;5074435;28;20095;-81
2023/09/25 00:12:57;;;;;;;3.38;3.03;;;14.60;99.90;;;;;;5073204;28;20047;-81
2023/09/25 00:15:23;;;;;;;3.15;2.85;;;14.60;99.90;;;;;;5074104;28;20013;-83
2023/09/25 00:17:49;;;;;;;3.83;3.28;;;14.60;99.90;;;;;;5083701;28;20058;-83
2023/09/25 00:20:19;;;;;;;3.70;2.53;;;14.50;99.90;;;;;;5084241;28;20034;-78
2023/09/25 00:22:46;;;;;;;6.35;3.08;;;14.50;99.90;;;;;;5072217;28;20019;-77
2023/09/25 00:25:12;;;;;;;4.93;3.10;;;14.50;99.90;;;;;;5074356;28;20024;-81
2023/09/25 00:27:37;;;;;;;4.13;2.70;;;14.50;99.90;;;;;;5082114;28;20032;-77
2023/09/25 00:30:06;;;;;;;3.15;2.78;;;14.40;99.90;;;;;;5072407;28;20017;-83
2023/09/25 00:32:32;;;;;;;3.03;2.72;;;14.50;99.90;;;;;;5075583;28;20352;-77
2023/09/25 00:34:58;;;;;;;2.85;2.65;;;14.40;99.90;;;;;;5078548;28;20020;-82
2023/09/25 00:37:24;;;;;;;5.18;3.80;;;14.40;99.90;;;;;;5072447;28;20063;-77
2023/09/25 00:39:50;;;;;;;5.25;2.97;;;14.40;99.90;;;;;;5085703;28;20056;-83
2023/09/25 00:42:16;;;;;;;3.10;2.90;;;14.40;99.90;;;;;;5088078;28;20111;-83
2023/09/25 00:44:41;;;;;;;3.95;3.10;;;14.40;99.90;;;;;;5085855;28;20441;-83
2023/09/25 00:47:08;;;;;;;6.75;3.75;;;14.40;99.90;;;;;;5082937;28;20016;-82
2023/09/25 00:49:36;;;;;;;5.53;3.42;;;14.40;99.90;;;;;;5080030;28;20382;-82
2023/09/25 00:52:03;;;;;;;5.18;3.33;;;14.40;99.90;;;;;;5078666;28;20025;-76
2023/09/25 00:54:31;;;;;;;4.82;4.13;;;14.40;99.90;;;;;;5078744;28;20022;-77
2023/09/25 00:56:58;;;;;;;3.50;3.20;;;14.40;99.90;;;;;;5078234;28;20501;-76
2023/09/25 00:59:25;;;;;;;6.32;3.90;;;14.30;99.90;;;;;;5073904;28;20025;-82
2023/09/25 01:01:51;;;;;;;5.38;3.38;;;14.40;99.90;;;;;;5077603;28;20025;-76
2023/09/25 01:04:17;;;;;;;4.03;3.67;;;14.40;99.90;;;;;;5078186;28;20017;-76
2023/09/25 01:06:43;;;;;;;3.80;3.40;;;14.30;99.90;;;;;;5077917;28;20709;-82
2023/09/25 01:09:09;;;;;;;5.85;3.72;;;14.30;99.90;;;;;;5086103;28;20012;-76
2023/09/25 01:11:35;;;;;;;6.05;3.55;;;14.30;99.90;;;;;;5088118;28;20418;-76
2023/09/25 01:14:00;;;;;;;4.32;3.88;;;14.20;99.90;;;;;;5084553;28;20052;-77
2023/09/25 01:16:26;;;;;;;5.72;3.47;;;14.20;99.90;;;;;;5073945;28;20025;-82
2023/09/25 01:18:52;;;;;;;4.72;4.07;;;14.20;99.90;;;;;;5079943;28;20630;-77
2023/09/25 01:21:18;;;;;;;4.53;3.60;;;14.20;99.90;;;;;;5078517;28;20028;-77
2023/09/25 01:23:44;;;;;;;4.68;4.07;;;14.20;99.90;;;;;;5084066;28;20026;-81
2023/09/25 01:26:09;;;;;;;4.45;4.05;;;14.20;99.90;;;;;;5087193;28;20024;-77
2023/09/25 01:28:35;;;;;;;4.30;3.90;;;14.20;99.90;;;;;;5080561;28;20473;-82
2023/09/25 01:31:01;;;;;;;6.05;4.22;;;14.20;99.90;;;;;;5084570;28;20470;-77
2023/09/25 01:33:26;;;;;;;6.10;4.65;;;14.10;99.90;;;;;;5083180;28;20201;-81
2023/09/25 01:35:52;;;;;;;5.25;4.35;;;14.20;99.90;;;;;;5087004;28;20472;-82
2023/09/25 01:38:18;;;;;;;4.60;4.20;;;14.20;99.90;;;;;;5078125;28;20040;-77
2023/09/25 01:40:44;;;;;;;7.13;5.15;;;14.20;99.90;;;;;;5068400;28;20487;-77
2023/09/25 01:43:09;;;;;;;5.85;4.45;;;14.20;99.90;;;;;;5079590;28;20099;-77
2023/09/25 01:45:35;;;;;;;8.07;5.47;;;14.20;99.90;;;;;;5084611;28;20488;-81
2023/09/25 01:48:01;;;;;;;5.68;5.07;;;14.10;99.90;;;;;;5078323;28;20108;-81
2023/09/25 01:50:28;;;;;;;4.68;4.28;;;14.20;99.90;;;;;;5086542;28;20020;-80
2023/09/25 01:52:56;;;;;;;7.25;4.57;;;14.20;99.90;;;;;;5081399;28;20017;-76
2023/09/25 01:55:22;;;;;;;5.53;4.70;;;14.20;99.90;;;;;;5089105;28;20048;-78
2023/09/25 01:57:48;;;;;;;5.38;4.57;;;14.20;99.90;;;;;;5082114;28;20064;-77
2023/09/25 02:00:16;;;;;;;4.45;4.05;;;14.20;99.90;;;;;;5088431;28;20027;-77
2023/09/25 02:02:42;;;;;;;7.40;5.10;;;14.20;99.90;;;;;;5083470;28;20019;-81
2023/09/25 02:05:08;;;;;;;5.53;5.03;;;14.20;99.90;;;;;;5081091;28;20020;-80
2023/09/25 02:07:33;;;;;;;8.75;5.05;;;14.20;99.90;;;;;;5065494;28;20463;-76
2023/09/25 02:09:59;;;;;;;5.22;4.72;;;14.10;99.90;;;;;;5076349;28;20025;-80
2023/09/25 02:12:25;;;;;;;7.22;4.70;;;14.10;99.90;;;;;;5073141;28;20024;-81
2023/09/25 02:14:54;;;;;;;6.70;5.38;;;14.10;99.90;;;;;;5082166;28;20020;-77
2023/09/25 02:17:20;;;;;;;6.10;5.25;;;14.10;99.90;;;;;;5084658;28;20024;-81
2023/09/25 02:19:46;;;;;;;5.93;5.07;;;14.10;99.90;;;;;;5090250;28;20035;-76
2023/09/25 02:22:12;;;;;;;6.85;4.93;;;14.10;99.90;;;;;;5088566;28;20390;-76
2023/09/25 02:24:39;;;;;;;7.47;5.00;;;14.10;99.90;;;;;;5090916;28;20047;-77
2023/09/25 02:27:05;;;;;;;8.05;4.78;;;14.10;99.90;;;;;;5089188;28;20016;-76
2023/09/25 02:29:31;;;;;;;6.22;5.03;;;14.10;99.90;;;;;;5069851;28;20022;-76
2023/09/25 02:31:56;;;;;;;8.48;5.07;;;14.00;99.90;;;;;;5087124;28;20016;-76
2023/09/25 02:34:22;;;;;;;6.40;5.53;;;14.00;99.90;;;;;;5068137;28;20026;-76
2023/09/25 02:36:48;;;;;;;5.25;4.75;;;14.00;99.90;;;;;;5079493;28;20474;-77
2023/09/25 02:39:15;;;;;;;6.35;5.72;;;14.00;99.90;;;;;;5085880;28;20083;-77
2023/09/25 02:41:41;;;;;;;7.90;4.95;;;13.90;99.90;;;;;;5081589;28;20438;-77
2023/09/25 02:44:07;;;;;;;9.02;5.95;;;13.90;99.90;;;;;;5085538;28;20051;-77
2023/09/25 02:46:32;;;;;;;6.43;5.38;;;13.80;99.90;;;;;;5079331;28;20039;-82
2023/09/25 02:48:58;;;;;;;9.52;6.68;;;13.80;99.90;;;;;;5063232;28;20474;-78
2023/09/25 02:51:24;;;;;;;9.52;6.65;;;13.70;99.90;;;;;;5075830;28;20020;-79
2023/09/25 02:53:52;;;;;;;7.07;6.43;;;13.70;99.90;;;;;;5078330;28;20028;-78
2023/09/25 02:56:17;;;;;;;9.80;6.75;;;13.70;99.90;;;;;;5085094;28;20568;-77
2023/09/25 02:58:44;;;;;;;8.52;6.15;;;13.60;99.90;;;;;;5088243;28;20050;-81
2023/09/25 03:01:09;;;;;;;7.85;6.45;;;13.60;99.90;;;;;;5085297;28;20112;-82
2023/09/25 03:03:35;;;;;;;6.68;6.03;;;13.50;99.90;;;;;;5077736;28;20549;-81
2023/09/25 03:06:01;;;;;;;7.07;6.38;;;13.50;99.90;;;;;;5071221;28;20021;-81
2023/09/25 03:08:26;;;;;;;9.90;6.07;;;13.50;99.90;;;;;;5090550;28;20019;-81
2023/09/25 03:10:52;;;;;;;9.23;7.45;;;13.40;99.90;;;;;;5080809;28;20784;-75
2023/09/25 03:13:17;;;;;;;8.57;7.05;;;13.40;99.90;;;;;;5073434;28;20031;-75
2023/09/25 03:15:44;;;;;;;8.43;6.82;;;13.40;99.90;;;;;;5074011;28;20025;-75
2023/09/25 03:18:11;;;;;;;8.82;6.70;;;13.30;99.90;;;;;;5074850;28;20078;-82
2023/09/25 03:20:38;;;;;;;7.63;6.82;;;13.30;99.90;;;;;;5080426;28;20274;-82
2023/09/25 03:23:04;;;;;;;9.27;6.95;;;13.30;99.90;;;;;;5064236;28;20413;-77
2023/09/25 03:25:34;;;;;;;8.18;6.32;;;13.30;99.90;;;;;;5073024;28;20127;-76
2023/09/25 03:28:00;;;;;;;7.95;6.97;;;13.30;99.90;;;;;;5072321;28;20496;-76
2023/09/25 03:30:26;;;;;;;8.98;6.30;;;13.40;99.90;;;;;;5070444;28;20020;-76
2023/09/25 03:32:54;;;;;;;8.00;6.78;;;13.40;99.90;;;;;;5075006;28;20037;-82
2023/09/25 03:35:22;;;;;;;8.57;6.70;;;13.50;99.90;;;;;;5085989;28;20024;-76
2023/09/25 03:37:48;;;;;;;8.13;6.60;;;13.50;99.90;;;;;;5073478;28;20048;-77
2023/09/25 03:40:14;;;;;;;9.45;6.68;;;13.60;99.90;;;;;;5075856;28;20040;-77
2023/09/25 03:42:43;;;;;;;8.15;7.35;;;13.60;99.90;;;;;;5075654;28;20021;-81
2023/09/25 03:45:09;;;;;;;9.85;7.70;;;13.70;99.90;;;;;;5072424;28;20048;-77
2023/09/25 03:47:35;;;;;;;10.73;7.50;;;13.70;99.90;;;;;;5076608;28;20035;-81
2023/09/25 03:50:03;;;;;;;8.23;6.80;;;13.80;99.90;;;;;;5075474;28;20070;-81
2023/09/25 03:52:28;;;;;;;7.18;6.30;;;13.80;99.90;;;;;;5080326;28;20399;-81
2023/09/25 03:54:54;;;;;;;10.20;7.50;;;13.80;99.90;;;;;;5072041;28;20050;-76
2023/09/25 03:57:20;;;;;;;6.85;6.15;;;13.80;99.90;;;;;;5071383;28;20078;-77
2023/09/25 03:59:46;;;;;;;8.20;6.22;;;13.80;99.90;;;;;;5084328;28;20044;-82
2023/09/25 04:02:11;;;;;;;6.82;6.10;;;13.80;99.90;;;;;;5091177;28;20039;-82
2023/09/25 04:04:37;;;;;;;9.20;6.72;;;13.80;99.90;;;;;;5089282;28;20028;-77
2023/09/25 04:07:03;;;;;;;7.00;5.97;;;13.80;99.90;;;;;;5075502;28;20017;-81
2023/09/25 04:09:29;;;;;;;7.88;6.82;;;13.80;99.90;;;;;;5076135;28;20375;-82
2023/09/25 04:11:57;;;;;;;9.18;7.22;;;13.80;99.90;;;;;;5078084;28;20086;-82
2023/09/25 04:14:23;;;;;;;8.23;6.05;;;13.80;99.90;;;;;;5080457;28;20501;-82
2023/09/25 04:16:49;;;;;;;7.93;6.65;;;13.80;99.90;;;;;;5087440;28;20016;-82
2023/09/25 04:19:15;;;;;;;9.15;7.10;;;13.80;99.90;;;;;;5076507;28;20090;-82
2023/09/25 04:21:41;;;;;;;13.20;7.72;;;13.80;99.90;;;;;;5083964;28;20020;-77
2023/09/25 04:24:10;;;;;;;11.73;7.28;;;13.80;99.90;;;;;;5091660;28;20025;-82
2023/09/25 04:26:37;;;;;;;9.75;7.47;;;13.80;99.90;;;;;;5093468;28;20012;-77
2023/09/25 04:29:04;;;;;;;8.63;6.35;;;13.80;99.90;;;;;;5088184;28;20048;-81
2023/09/25 04:31:30;;;;;;;8.80;7.22;;;13.80;99.90;;;;;;5080733;28;20037;-77
2023/09/25 04:33:56;;;;;;;7.88;7.05;;;13.80;99.90;;;;;;5080923;28;20023;-77
2023/09/25 04:36:23;;;;;;;8.75;7.38;;;13.80;99.90;;;;;;5086250;28;20020;-82
2023/09/25 04:38:49;;;;;;;8.27;6.90;;;13.80;99.90;;;;;;5085098;28;20125;-77
2023/09/25 04:41:15;;;;;;;11.43;7.00;;;13.80;99.90;;;;;;5082072;28;20112;-82
2023/09/25 04:43:40;;;;;;;8.57;7.20;;;13.80;99.90;;;;;;5088877;28;20028;-82
2023/09/25 04:46:06;;;;;;;9.98;6.53;;;13.80;99.90;;;;;;5093899;28;20016;-78
2023/09/25 04:48:31;;;;;;;12.25;7.40;;;13.80;99.90;;;;;;5078206;28;20070;-78
2023/09/25 04:50:57;;;;;;;9.25;7.20;;;13.80;99.90;;;;;;5075580;28;20043;-77
2023/09/25 04:53:23;;;;;;;11.30;8.07;;;13.80;99.90;;;;;;5075481;28;20154;-77
2023/09/25 04:55:49;;;;;;;10.65;7.63;;;13.80;99.90;;;;;;5075516;28;20086;-77
2023/09/25 04:58:14;;;;;;;11.18;8.27;;;13.80;99.90;;;;;;5082388;28;20021;-77
2023/09/25 05:00:41;;;;;;;9.10;7.25;;;13.90;99.90;;;;;;5081284;28;20040;-78
2023/09/25 05:03:07;;;;;;;9.05;7.85;;;13.80;99.90;;;;;;5079860;28;20066;-77
2023/09/25 05:05:33;;;;;;;9.98;7.70;;;13.80;99.90;;;;;;5073403;28;20024;-81
2023/09/25 05:07:59;;;;;;;10.00;7.90;;;13.80;99.90;;;;;;5063434;28;20470;-84
2023/09/25 05:10:29;;;;;;;8.35;7.50;;;13.80;99.90;;;;;;5084582;28;20024;-77
2023/09/25 05:12:56;;;;;;;11.75;9.00;;;13.80;99.90;;;;;;5092605;28;20077;-83
2023/09/25 05:15:22;;;;;;;8.95;7.68;;;13.80;99.90;;;;;;5079833;28;20021;-83
2023/09/25 05:17:48;;;;;;;11.45;7.72;;;13.80;99.90;;;;;;5073216;28;20063;-84
2023/09/25 05:20:20;;;;;;;10.82;7.65;;;13.80;99.90;;;;;;5076326;28;20064;-79
2023/09/25 05:22:48;;;;;;;13.30;8.18;;;13.80;99.90;;;;;;5077179;28;20082;-84
2023/09/25 05:25:15;;;;;;;10.82;8.80;;;13.80;99.90;;;;;;5073228;28;20048;-84
2023/09/25 05:27:44;;;;;;;7.68;6.68;;;13.80;99.90;;;;;;5073057;28;20066;-79
2023/09/25 05:30:10;;;;;;;7.75;7.05;;;13.80;99.90;;;;;;5073711;28;20486;-82
2023/09/25 05:32:37;;;;;;;7.88;7.00;;;13.80;99.90;;;;;;5088706;28;20059;-80
2023/09/25 05:35:04;;;;;;;9.77;6.82;;;13.70;99.90;;;;;;5085356;28;20059;-80
2023/09/25 05:37:30;;;;;;;9.52;6.90;;;13.70;99.90;;;;;;5072774;28;20027;-81
2023/09/25 05:39:56;;;;;;;10.10;7.75;;;13.70;99.90;;;;;;5080355;28;20401;-83
2023/09/25 05:42:21;;;;;;;11.35;7.65;;;13.80;99.90;;;;;;5084229;28;20023;-82
2023/09/25 05:44:47;;;;;;;11.60;9.23;;;13.70;99.90;;;;;;5073993;28;20432;-80
2023/09/25 05:47:13;;;;;;;11.38;8.93;;;13.70;99.90;;;;;;5079243;28;20020;-80
2023/09/25 05:49:38;;;;;;;10.98;9.88;;;13.70;99.90;;;;;;5073856;28;20021;-82
2023/09/25 05:52:04;;;;;;;12.57;9.63;;;13.70;99.90;;;;;;5075789;28;20025;-81
2023/09/25 05:54:31;;;;;;;15.73;10.27;;;13.70;99.90;;;;;;5077410;28;20052;-81
2023/09/25 05:56:56;;;;;;;14.55;9.73;;;13.70;99.90;;;;;;5075963;28;20020;-80
2023/09/25 05:59:22;;;;;;;12.35;9.73;;;13.70;99.90;;;;;;5075433;28;20130;-81
2023/09/25 06:01:48;;;;;;;13.43;9.68;;;13.70;99.90;;;;;;5081181;28;20024;-81
2023/09/25 06:04:15;;;;;;;11.80;9.82;;;13.70;99.90;;;;;;5088289;28;20466;-83
2023/09/25 06:06:41;;;;;;;11.75;9.68;;;13.70;99.90;;;;;;5078099;28;20362;-82
2023/09/25 06:09:08;;;;;;;14.32;10.27;;;13.70;99.90;;;;;;5092185;28;20031;-80
2023/09/25 06:11:38;;;;;;;13.32;10.50;;;13.70;99.90;;;;;;5091914;28;20373;-80
2023/09/25 06:14:04;;;;;;;12.68;10.45;;;13.60;99.90;;;;;;5090889;28;20020;-80
2023/09/25 06:16:30;;;;;;;11.65;10.05;;;13.70;99.90;;;;;;5091561;28;20020;-80
2023/09/25 06:18:55;;;;;;;12.05;10.68;;;13.70;99.90;;;;;;5092669;28;20039;-82
2023/09/25 06:21:21;;;;;;;11.88;10.43;;;13.60;99.90;;;;;;5091565;28;20022;-82
2023/09/25 06:23:49;;;;;;;13.32;10.65;;;13.60;99.90;;;;;;5092227;28;20114;-82
2023/09/25 06:26:15;;;;;;;15.75;11.75;;;13.60;99.90;;;;;;5092222;28;20020;-81
2023/09/25 06:28:42;;;;;;;14.43;10.80;;;13.60;99.90;;;;;;5079966;28;20478;-82
2023/09/25 06:31:08;;;;;;;14.85;11.02;;;13.60;99.90;;;;;;5072380;28;20032;-80
2023/09/25 06:33:35;;;;;;;22.92;12.18;;;13.60;99.90;;;;;;5073997;28;20033;-80
2023/09/25 06:36:00;;;;;;;16.05;11.90;;;13.60;99.90;;;;;;5072409;28;20017;-80
2023/09/25 06:38:26;;;;;;;18.23;11.85;;;13.60;99.90;;;;;;5073776;28;20102;-80
2023/09/25 06:40:52;;;;;;;14.25;11.70;;;13.60;99.90;;;;;;5071611;28;20033;-80
2023/09/25 06:43:17;;;;;;;16.92;11.60;;;13.60;99.90;;;;;;5073712;28;20036;-82
2023/09/25 06:45:44;;;;;;;14.07;11.60;;;13.60;99.90;;;;;;5072395;28;20424;-80
2023/09/25 06:48:10;;;;;;;14.23;12.27;;;13.60;99.90;;;;;;5073896;28;20024;-82
2023/09/25 06:50:35;;;;;;;16.25;13.07;;;13.70;99.90;;;;;;5072596;28;20016;-82
2023/09/25 06:53:02;;;;;;;18.10;12.80;;;13.70;99.90;;;;;;5072398;28;20466;-82
2023/09/25 06:55:27;;;;;;;15.75;12.23;;;13.70;99.90;;;;;;5079372;28;20028;-81
2023/09/25 06:57:53;;;;;;;16.30;12.30;;;13.80;99.90;;;;;;5081306;28;20378;-80
2023/09/25 07:00:19;;;;;;;15.77;12.70;;;13.80;99.90;;;;;;5090151;28;20039;-80
2023/09/25 07:02:45;;;;;;;15.25;13.13;;;13.80;99.90;;;;;;5087880;28;20382;-80
2023/09/25 07:05:11;;;;;;;14.93;12.73;;;13.80;99.90;;;;;;5084621;28;20086;-82
2023/09/25 07:07:37;;;;;;;15.52;11.63;;;13.90;99.90;;;;;;5084510;28;20439;-81
2023/09/25 07:10:06;;;;;;;14.27;10.85;;;13.90;99.90;;;;;;5085466;28;20028;-82
2023/09/25 07:12:33;;;;;;;14.30;10.77;;;13.90;99.90;;;;;;5071691;28;20051;-83
2023/09/25 07:15:01;;;;;;;12.82;11.55;;;14.00;99.90;;;;;;5072984;28;20099;-83
2023/09/25 07:17:28;;;;;;;16.08;11.70;;;14.00;99.90;;;;;;5073255;28;20422;-83
2023/09/25 07:19:57;;;;;;;13.10;11.18;;;14.10;99.90;;;;;;5080262;28;20115;-80
2023/09/25 07:22:27;;;;;;;12.77;11.48;;;14.10;99.90;;;;;;5078077;28;20020;-82
2023/09/25 07:24:53;;;;;;;12.90;11.15;;;14.20;99.90;;;;;;5091627;28;20027;-83
2023/09/25 07:27:19;;;;;;;10.98;9.82;;;14.20;99.90;;;;;;5086995;28;20020;-80
2023/09/25 07:29:46;;;;;;;13.57;10.98;;;14.30;99.90;;;;;;5088748;28;20013;-83
2023/09/25 07:32:12;;;;;;;13.40;12.00;;;14.30;99.90;;;;;;5084976;28;20485;-82
2023/09/25 07:34:39;;;;;;;13.23;11.07;;;14.40;99.90;;;;;;5088339;28;20063;-80
2023/09/25 07:37:05;;;;;;;12.65;11.35;;;14.40;99.90;;;;;;5084114;28;20103;-81
2023/09/25 07:39:38;;;;;;;15.30;11.98;;;14.50;99.90;;;;;;5088355;28;20048;-80
2023/09/25 07:42:04;;;;;;;12.75;11.05;;;14.60;99.90;;;;;;5085771;28;20029;-80
2023/09/25 07:44:33;;;;;;;16.70;11.68;;;14.60;99.90;;;;;;5088398;28;20039;-80
2023/09/25 07:47:00;;;;;;;13.43;11.80;;;14.70;99.90;;;;;;5084260;28;20062;-83
2023/09/25 07:49:27;;;;;;;13.05;11.65;;;14.70;99.90;;;;;;5088233;28;20409;-80
2023/09/25 07:51:53;;;;;;;13.80;12.40;;;14.80;99.90;;;;;;5084582;28;20024;-80
2023/09/25 07:54:20;;;;;;;16.73;11.88;;;14.80;99.90;;;;;;5088048;28;20393;-83
2023/09/25 07:56:47;;;;;;;16.08;12.35;;;14.90;99.90;;;;;;5081028;28;20369;-80
2023/09/25 07:59:13;;;;;;;14.20;12.70;;;14.90;99.90;;;;;;5074586;28;20031;-84
2023/09/25 08:01:39;;;;;;;17.13;13.93;;;15.00;99.90;;;;;;5077958;28;20469;-83
2023/09/25 08:04:05;;;;;;;14.30;12.80;;;15.00;99.90;;;;;;5077545;28;20090;-81
2023/09/25 08:06:31;;;;;;;13.95;12.48;;;15.00;99.90;;;;;;5075788;28;20024;-80
2023/09/25 08:08:57;;;;;;;14.23;12.73;;;15.00;99.90;;;;;;5091134;28;20031;-83
2023/09/25 08:11:24;;;;;;;13.25;11.52;;;15.10;99.90;;;;;;5090244;28;20466;-80
2023/09/25 08:13:50;;;;;;;14.75;12.48;;;15.10;99.90;;;;;;5090954;28;20052;-84
2023/09/25 08:16:22;;;;;;;15.10;13.32;;;15.10;99.90;;;;;;5089360;28;20028;-81
2023/09/25 08:18:48;;;;;;;13.63;11.57;;;15.20;99.90;;;;;;5083183;28;20024;-83
2023/09/25 08:21:14;;;;;;;13.50;11.93;;;15.20;99.90;;;;;;5082724;28;20026;-80
2023/09/25 08:23:40;;;;;;;13.32;11.50;;;15.30;99.90;;;;;;5081581;28;20091;-79
2023/09/25 08:26:05;;;;;;;13.90;12.50;;;15.30;99.90;;;;;;5083946;28;20016;-83
2023/09/25 08:28:34;;;;;;;14.02;12.60;;;15.30;99.90;;;;;;5081513;28;20024;-84
2023/09/25 08:31:00;;;;;;;14.13;12.73;;;15.40;99.90;;;;;;5083609;28;20012;-84
2023/09/25 08:33:26;;;;;;;12.35;11.13;;;15.40;99.90;;;;;;5081446;28;20017;-80
2023/09/25 08:35:52;;;;;;;16.00;12.05;;;15.50;99.90;;;;;;5082962;28;20024;-80
2023/09/25 08:38:18;;;;;;;14.68;12.35;;;15.50;99.90;;;;;;5081349;28;20052;-84
2023/09/25 08:40:50;;;;;;;12.73;10.82;;;15.60;99.90;;;;;;5083417;28;20051;-80
2023/09/25 08:43:16;;;;;;;12.07;10.85;;;15.70;99.90;;;;;;5080498;28;20050;-80
2023/09/25 08:45:44;;;;;;;11.88;10.88;;;15.80;99.90;;;;;;5083810;28;20009;-85
2023/09/25 08:48:16;;;;;;;11.73;10.52;;;15.90;99.90;;;;;;5078908;28;20440;-84
2023/09/25 08:50:44;;;;;;;11.45;10.35;;;16.00;99.90;;;;;;5070822;28;20058;-80
2023/09/25 08:53:10;;;;;;;11.32;10.23;;;16.20;99.90;;;;;;5079266;28;20020;-84
2023/09/25 08:55:36;;;;;;;12.75;10.10;;;16.30;99.90;;;;;;5083297;28;20019;-80
2023/09/25 08:58:02;;;;;;;15.05;10.05;;;16.30;99.90;;;;;;5080163;28;20470;-85
2023/09/25 09:00:32;;;;;;;11.50;9.35;;;16.40;99.90;;;;;;5086709;28;20066;-85
2023/09/25 09:02:57;;;;;;;9.20;8.40;;;16.40;99.90;;;;;;5080355;28;20521;-80
2023/09/25 09:05:23;;;;;;;11.32;8.63;;;16.60;99.90;;;;;;5083407;28;20095;-84
2023/09/25 09:07:56;;;;;;;9.95;8.93;;;16.70;99.90;;;;;;5087265;28;20107;-80
2023/09/25 09:10:22;;;;;;;10.18;9.27;;;16.80;99.90;;;;;;5094267;28;20024;-80
2023/09/25 09:12:54;;;;;;;9.52;8.63;;;16.80;99.90;;;;;;5093130;28;20111;-79
2023/09/25 09:15:27;;;;;;;8.88;7.97;;;16.80;99.90;;;;;;5086492;28;20021;-84
2023/09/25 09:17:54;;;;;;;8.55;7.65;;;16.90;99.90;;;;;;5065364;28;20115;-81
2023/09/25 09:20:22;;;;;;;8.55;7.75;;;16.90;99.90;;;;;;5080821;28;20029;-82
2023/09/25 09:22:54;;;;;;;8.05;7.35;;;17.00;99.90;;;;;;5083109;28;20173;-81
2023/09/25 09:25:22;;;;;;;;;;;17.00;99.90;;;;;;5079911;28;20049;-84
2023/09/25 09:27:48;;;;;;;7.28;6.57;;;17.00;99.90;;;;;;5082125;28;20239;-81
2023/09/25 09:30:22;;;;;;;7.72;6.95;;;17.10;99.90;;;;;;5077954;28;20027;-85
2023/09/25 09:32:52;;;;;;;7.70;6.90;;;17.10;99.90;;;;;;5081814;28;20063;-85
2023/09/25 09:35:22;;;;;;;6.68;5.97;;;17.00;99.90;;;;;;5078895;28;20033;-84
2023/09/25 09:37:50;;;;;;;9.75;7.78;;;17.00;99.90;;;;;;5077813;28;20055;-85
2023/09/25 09:40:17;;;;;;;8.60;7.15;;;17.00;99.90;;;;;;5076836;28;20037;-80
2023/09/25 09:42:43;;;;;;;7.68;6.65;;;17.10;99.90;;;;;;5072890;28;20033;-80
2023/09/25 09:45:10;;;;;;;7.38;6.57;;;17.10;99.90;;;;;;5076912;28;20434;-81
2023/09/25 09:47:41;;;;;;;8.40;6.28;;;17.20;99.90;;;;;;5072288;28;20532;-80
2023/09/25 09:50:09;;;;;;;10.40;7.38;;;17.20;99.90;;;;;;5074901;28;20078;-80
2023/09/25 09:52:36;;;;;;;8.27;6.80;;;17.30;99.90;;;;;;5075288;28;20068;-81
2023/09/25 09:55:04;;;;;;;7.25;6.53;;;17.20;99.90;;;;;;5070976;28;20028;-81
2023/09/25 09:57:31;;;;;;;8.90;7.00;;;17.20;99.90;;;;;;5069027;28;20070;-81
2023/09/25 09:59:57;;;;;;;7.55;6.55;;;17.20;99.90;;;;;;5072757;28;20067;-81
2023/09/25 10:02:25;;;;;;;6.78;6.18;;;17.30;99.90;;;;;;5071940;28;20064;-81
2023/09/25 10:04:51;;;;;;;7.55;6.50;;;17.30;99.90;;;;;;5070926;28;20584;-82
2023/09/25 10:07:17;;;;;;;8.50;6.95;;;17.40;99.90;;;;;;5072074;28;20086;-81
2023/09/25 10:09:56;;;;;;;7.85;7.05;;;17.40;99.90;;;;;;5072059;28;20119;-81
2023/09/25 10:12:50;;;;;;;7.20;6.60;;;17.40;99.90;;;;;;5073161;28;20029;-82
2023/09/25 10:15:23;;;;;;;7.97;7.28;;;17.40;99.90;;;;;;5061637;28;20043;-81
2023/09/25 10:17:48;;;;;;;7.63;6.72;;;17.50;99.90;;;;;;5073564;28;20024;-80
2023/09/25 10:20:36;;;;;;;11.02;7.53;;;17.50;99.90;;;;;;5073651;28;20048;-81
2023/09/25 10:23:16;;;;;;;8.98;7.32;;;17.40;99.90;;;;;;5071121;28;20032;-80
2023/09/25 10:25:47;;;;;;;8.52;7.72;;;17.40;99.90;;;;;;5071128;28;20016;-81
2023/09/25 10:28:21;;;;;;;8.73;7.57;;;17.40;99.90;;;;;;5063746;28;20397;-80
2023/09/25 10:30:48;;;;;;;8.52;7.63;;;17.50;99.90;;;;;;5071050;28;20378;-82
2023/09/25 10:33:15;;;;;;;8.77;7.88;;;17.50;99.90;;;;;;5071744;28;20113;-81
2023/09/25 10:35:42;;;;;;;10.40;7.43;;;17.50;99.90;;;;;;5080909;28;20054;-82
2023/09/25 10:38:12;;;;;;;7.03;6.43;;;17.50;99.90;;;;;;5085528;28;20071;-81
2023/09/25 10:40:41;;;;;;;9.95;8.20;;;17.60;99.90;;;;;;5082619;28;20040;-81
2023/09/25 10:43:08;;;;;;;8.90;7.60;;;17.60;99.90;;;;;;5063898;28;20075;-80
2023/09/25 10:45:35;;;;;;;8.95;7.80;;;17.70;99.90;;;;;;5070199;28;20028;-81
2023/09/25 10:48:01;;;;;;;11.48;8.05;;;17.70;99.90;;;;;;5079689;28;20024;-81
2023/09/25 10:50:28;;;;;;;8.38;7.55;;;17.70;99.90;;;;;;5072804;28;20094;-82
2023/09/25 10:52:54;;;;;;;9.48;7.45;;;17.80;99.90;;;;;;5070774;28;20191;-82
2023/09/25 10:55:20;;;;;;;8.13;7.30;;;17.90;99.90;;;;;;5074644;28;20111;-84
2023/09/25 10:57:46;;;;;;;8.30;7.50;;;17.90;99.90;;;;;;5081654;28;20032;-84
2023/09/25 11:00:15;;;;;;;11.52;8.13;;;18.00;99.90;;;;;;5071406;28;20028;-83
2023/09/25 11:02:42;;;;;;;10.10;7.63;;;17.90;99.90;;;;;;5072087;28;20063;-84
2023/09/25 11:05:10;;;;;;;9.07;7.15;;;17.90;99.90;;;;;;5071652;28;20416;-84
2023/09/25 11:07:36;;;;;;;8.10;7.13;;;18.00;99.90;;;;;;5070937;28;20032;-84
2023/09/25 11:10:03;;;;;;;7.72;6.93;;;18.00;99.90;;;;;;5071089;28;20025;-83
2023/09/25 11:12:30;;;;;;;8.45;7.55;;;18.00;99.90;;;;;;5071480;28;20102;-84
2023/09/25 11:14:57;;;;;;;9.98;8.20;;;17.90;99.90;;;;;;5070858;28;20032;-84
2023/09/25 11:17:23;;;;;;;7.88;7.10;;;17.90;99.90;;;;;;5071013;28;20482;-84
2023/09/25 11:19:51;;;;;;;10.45;7.35;;;17.90;99.90;;;;;;5072202;28;20425;-83
2023/09/25 11:22:21;;;;;;;10.20;7.40;;;17.90;99.90;;;;;;5074684;28;20040;-83
2023/09/25 11:24:58;;;;;;;7.75;7.00;;;17.90;99.90;;;;;;5071919;28;20062;-83
2023/09/25 11:27:24;;;;;;;10.77;7.35;;;17.90;99.90;;;;;;5068035;28;20032;-84
2023/09/25 11:29:50;;;;;;;9.10;7.32;;;17.90;99.90;;;;;;5072486;28;20017;-83
2023/09/25 11:32:19;;;;;;;7.30;6.45;;;17.90;99.90;;;;;;5072184;28;20030;-83
2023/09/25 11:34:45;;;;;;;7.53;6.75;;;17.90;99.90;;;;;;5071444;28;20081;-83
2023/09/25 11:37:20;;;;;;;8.57;5.82;;;18.00;99.90;;;;;;5072192;28;20029;-83
2023/09/25 11:39:46;;;;;;;15.45;6.95;;;18.10;99.90;;;;;;5072175;28;20048;-83
2023/09/25 11:42:11;;;;;;;7.57;6.45;;;18.10;99.90;;;;;;5075570;28;20020;-83
2023/09/25 11:44:37;;;;;;;9.52;6.95;;;18.20;99.90;;;;;;5073694;28;20394;-84
2023/09/25 11:47:06;;;;;;;8.68;7.88;;;18.10;99.90;;;;;;5076871;28;20024;-83
2023/09/25 11:49:31;;;;;;;7.75;6.95;;;18.20;99.90;;;;;;5074055;28;20033;-84
2023/09/25 11:51:57;;;;;;;10.82;7.22;;;18.10;99.90;;;;;;5075701;28;20029;-83
2023/09/25 11:54:23;;;;;;;9.13;7.13;;;18.10;99.90;;;;;;5070436;28;20033;-83
2023/09/25 11:56:48;;;;;;;7.50;6.70;;;18.10;99.90;;;;;;5065915;28;20028;-83
2023/09/25 11:59:16;;;;;;;6.82;6.07;;;18.10;99.90;;;;;;5083557;28;20575;-83
2023/09/25 12:01:41;;;;;;;9.50;6.68;;;18.10;99.90;;;;;;5071964;28;20095;-83
2023/09/25 12:04:09;;;;;;;7.22;6.03;;;18.10;99.90;;;;;;5071048;28;20037;-84
2023/09/25 12:06:35;;;;;;;6.82;5.90;;;18.10;99.90;;;;;;5070277;28;20074;-83
2023/09/25 12:09:10;;;;;;;10.93;6.70;;;18.10;99.90;;;;;;5073557;28;20099;-84
2023/09/25 12:11:40;;;;;;;7.07;6.10;;;18.10;99.90;;;;;;5075159;28;20025;-83
2023/09/25 12:14:06;;;;;;;7.93;5.80;;;18.00;99.90;;;;;;5070763;28;20037;-83
2023/09/25 12:16:33;;;;;;;8.88;6.30;;;18.00;99.90;;;;;;5070864;28;20462;-83
2023/09/25 12:18:59;;;;;;;6.85;6.15;;;17.90;99.90;;;;;;5070424;28;20040;-83
2023/09/25 12:21:25;;;;;;;8.40;5.43;;;18.00;99.90;;;;;;5067618;28;20029;-83
2023/09/25 12:23:50;;;;;;;7.35;5.82;;;18.00;99.90;;;;;;5070067;28;20074;-83
2023/09/25 12:26:16;;;;;;;14.10;6.90;;;18.00;99.90;;;;;;5078475;28;20029;-82
2023/09/25 12:28:42;;;;;;;8.10;5.85;;;18.00;99.90;;;;;;5069849;28;20032;-83
2023/09/25 12:31:08;;;;;;;8.20;6.70;;;18.00;99.90;;;;;;5077026;28;20012;-82
2023/09/25 12:33:34;;;;;;;11.43;7.53;;;18.00;99.90;;;;;;5084002;28;20595;-83
2023/09/25 12:36:00;;;;;;;8.98;6.57;;;18.00;99.90;;;;;;5073078;28;20028;-83
2023/09/25 12:38:27;;;;;;;9.05;7.05;;;18.00;99.90;;;;;;5079912;28;20032;-83